Nearby METAR Reports

 

KPRB - Paso Robles, California, USA
Distance from station: SW 1mi, 1km
Updated: 04/24/2014 6:53pm
Clear
Clear
 Wind from W
Wind: W 9 mph , 15 km/h
Temperature: 70°F , 21°C
Dew Point: 37°F , 3°C
Humidity: 31%
Barometer: 29.94 inHg , 1013.9 hPa
Clouds: Clear
Visibility: 10 miles , 16 km
2014/04/25 01:53 KPRB 250153Z AUTO 28008KT 10SM CLR 21/03 A2994 RMK AO2 SLP134 T02110033 TSNO
KSBP - San Luis Obispo, California, USA
Distance from station: S 30mi, 49km
Updated: 04/24/2014 6:56pm
Partly cloudy
Partly cloudy
 Wind from NW
Wind: NW 18 mph , 30 km/h, Gust: 26 mph , 43 km/h
Temperature: 57°F , 14°C
Dew Point: 50°F , 10°C
Humidity: 77%
Barometer: 29.96 inHg , 1014.6 hPa
Clouds: Partly cloudy
Visibility: 10 miles , 16 km
Cloud details: Partly cloudy 1200 ft
2014/04/25 01:56 KSBP 250156Z 32016G23KT 10SM SCT012 14/10 A2996 RMK AO2 PK WND 32026/0101 SLP146 T01440100
 
KSMX - Santa Maria, California, USA
Distance from station: S 54mi, 87km
Updated: 04/24/2014 6:51pm
Clear
Clear
 Wind from WNW
Wind: WNW 18 mph , 30 km/h
Temperature: 59°F , 15°C
Dew Point: 50°F , 10°C
Humidity: 72%
Barometer: 29.96 inHg , 1014.6 hPa
Clouds: Clear
Visibility: 9 miles , 14 km
2014/04/25 01:51 KSMX 250151Z 29016KT 9SM CLR 15/10 A2996 RMK AO2 PK WND 30027/0055 SLP148 T01500100 $
KNLC - Lemoore Nas/Reev, California, USA
Distance from station: NE 58mi, 94km
Updated: 04/24/2014 6:56pm
Overcast
Overcast
 Wind from N
Wind: N 12 mph , 19 km/h
Temperature: 77°F , 25°C
Dew Point: 45°F , 7°C
Humidity: 32%
Barometer: 29.91 inHg , 1012.9 hPa
Clouds: Overcast
Visibility: 10 miles , 16 km
Cloud details: Few Clouds 4500 ft
Mostly cloudy 12000 ft
Overcast 24000 ft
2014/04/25 01:56 KNLC 250156Z 36010KT 10SM FEW045 BKN120 OVC240 25/07 A2991 RMK AO2 SLPNO RH/31 T02500072 $
 
KVBG - Vandenberg Afb, California, USA
Distance from station: S 65mi, 105km
Updated: 04/24/2014 6:55pm
Mostly cloudy
Mostly cloudy
 Wind from NNW
Wind: NNW 21 mph , 33 km/h, Gust: 29 mph , 46 km/h
Temperature: 55°F , 13°C
Dew Point: 50°F , 10°C
Humidity: 82%
Barometer: 29.98 inHg , 1015.2 hPa
Clouds: Mostly cloudy
Visibility: 10 miles , 16 km
Cloud details: Mostly cloudy 800 ft
2014/04/25 01:55 KVBG 250155Z AUTO 34018G25KT 10SM BKN008 13/10 A2998 RMK AO2 PK WND 33029/0056 SLP145 T01280100 TSNO
KLPC - Lompoc, California, USA
Distance from station: S 70mi, 113km
Updated: 04/24/2014 7:15pm
Clear
Clear
 Wind from W
Wind: W 14 mph , 22 km/h
Temperature: 57°F , 14°C
Dew Point: 46°F , 8°C
Humidity: 67%
Barometer: 29.99 inHg , 1015.6 hPa
Clouds: Clear
Visibility: 10 miles , 16 km
2014/04/25 02:15 KLPC 250215Z AUTO 26012KT 100V010 10SM CLR 14/08 A2999 RMK AO1
 
KHJO - Hanford, California, USA
Distance from station: NE 72mi, 116km
Updated: 04/24/2014 6:53pm
Clear
Clear
 Wind from NW
Wind: NW 7 mph , 11 km/h
Temperature: 75°F , 24°C
Dew Point: 45°F , 7°C
Humidity: 34%
Barometer: 29.91 inHg , 1012.9 hPa
Clouds: Clear
Visibility: 10 miles , 16 km
2014/04/25 01:53 KHJO 250153Z AUTO 32006KT 10SM CLR 24/07 A2991 RMK AO2 SLP130 T02440072